createdAt,value
2018-06-15T03:09:35.542Z,56.57
2018-06-15T03:12:02.068Z,56.88
2018-06-15T03:14:28.517Z,56.85
2018-06-15T03:16:55.305Z,56.52
2018-06-15T03:19:21.753Z,56.86
2018-06-15T03:21:48.325Z,56.59
2018-06-15T03:24:14.860Z,56.52
2018-06-15T03:26:43.428Z,56.42
2018-06-15T03:29:09.884Z,56.93
2018-06-15T03:31:36.508Z,56.64
2018-06-15T03:34:02.979Z,57.03
2018-06-15T03:36:29.769Z,56.53
2018-06-15T03:38:56.261Z,56.57
2018-06-15T03:41:23.498Z,56.68
2018-06-15T03:43:50.314Z,56.97
2018-06-15T03:46:16.774Z,57.09
2018-06-15T03:48:43.260Z,56.63
2018-06-15T03:51:09.712Z,57.04
2018-06-15T03:53:36.658Z,57.09
2018-06-15T03:56:03.446Z,56.69
2018-06-15T03:58:29.914Z,56.93
2018-06-15T04:00:56.679Z,57.01
2018-06-15T04:03:23.164Z,56.47
2018-06-15T04:05:49.700Z,57.08
2018-06-15T04:08:16.548Z,57.11
2018-06-15T04:10:43.028Z,57.16
2018-06-15T04:13:09.486Z,57.19
2018-06-15T04:15:35.932Z,57.09
2018-06-15T04:18:02.670Z,56.80
2018-06-15T04:20:29.118Z,57.12
2018-06-15T04:22:55.617Z,56.55
2018-06-15T04:25:22.452Z,57.08
2018-06-15T04:27:48.960Z,57.06
2018-06-15T04:30:15.422Z,56.68
2018-06-15T04:32:42.152Z,56.69
2018-06-15T04:35:09.477Z,56.72
2018-06-15T04:37:35.946Z,56.64
2018-06-15T04:40:02.694Z,57.07
2018-06-15T04:42:29.148Z,56.88
2018-06-15T04:44:55.597Z,57.22
2018-06-15T04:47:22.360Z,57.04
2018-06-15T04:49:48.804Z,57.13
2018-06-15T04:52:15.244Z,57.16
2018-06-15T04:54:41.977Z,57.12
2018-06-15T04:57:08.436Z,56.65
2018-06-15T04:59:34.880Z,57.19
2018-06-15T05:02:01.663Z,56.56
2018-06-15T05:04:28.147Z,57.12
2018-06-15T05:06:54.628Z,56.67
2018-06-15T05:09:21.375Z,56.97
2018-06-15T05:11:48.625Z,57.17
2018-06-15T05:14:15.068Z,56.97
2018-06-15T05:16:41.803Z,56.94
2018-06-15T05:19:08.257Z,56.30
2018-06-15T05:21:34.716Z,56.58
2018-06-15T05:24:01.457Z,56.42
2018-06-15T05:26:27.950Z,56.16
2018-06-15T05:28:54.409Z,56.28
2018-06-15T05:31:24.508Z,56.35
2018-06-15T05:33:51.488Z,56.52
2018-06-15T05:36:17.929Z,56.33
2018-06-15T05:38:44.379Z,56.19
2018-06-15T05:41:10.832Z,56.32
2018-06-15T05:43:37.565Z,56.83
2018-06-15T05:46:04.025Z,56.54
2018-06-15T05:48:30.493Z,56.43
2018-06-15T05:50:57.233Z,56.91
2018-06-15T05:53:24.363Z,56.91
2018-06-15T05:55:50.828Z,57.47
2018-06-15T05:58:18.985Z,58.02
2018-06-15T06:00:45.439Z,58.53
2018-06-15T06:03:11.897Z,59.01
2018-06-15T06:05:38.649Z,59.48
2018-06-15T06:08:05.233Z,59.93
2018-06-15T06:10:31.701Z,59.65
2018-06-15T06:12:58.457Z,59.64
2018-06-15T06:15:24.914Z,58.71
2018-06-15T06:17:51.376Z,58.10
2018-06-15T06:20:18.128Z,57.93
2018-06-15T06:22:44.576Z,57.83
2018-06-15T06:25:15.164Z,57.69
2018-06-15T06:27:41.991Z,56.32
2018-06-15T06:30:08.453Z,56.59
2018-06-15T06:32:34.942Z,56.25
2018-06-15T06:35:03.104Z,56.00
2018-06-15T06:37:29.560Z,56.41
2018-06-15T06:39:56.001Z,56.11
2018-06-15T06:42:22.750Z,56.20
2018-06-15T06:44:49.226Z,56.67
2018-06-15T06:47:15.673Z,56.27
2018-06-15T06:49:43.052Z,56.21
2018-06-15T06:52:09.515Z,56.58
2018-06-15T06:54:35.973Z,56.65
2018-06-15T06:57:03.388Z,56.52
2018-06-15T06:59:29.866Z,56.27
2018-06-15T07:01:56.326Z,56.61
2018-06-15T07:04:23.080Z,56.07
2018-06-15T07:06:49.632Z,56.22
2018-06-15T07:09:16.104Z,56.05
2018-06-15T07:11:42.879Z,56.06
2018-06-15T07:14:09.364Z,56.55
2018-06-15T07:16:35.837Z,55.98
2018-06-15T07:19:02.584Z,56.17
2018-06-15T07:21:29.049Z,56.08
2018-06-15T07:23:56.465Z,56.37
2018-06-15T07:26:24.175Z,56.01
2018-06-15T07:28:50.660Z,56.24
2018-06-15T07:31:17.129Z,56.14
2018-06-15T07:33:44.323Z,55.73
2018-06-15T07:36:10.773Z,55.80
2018-06-15T07:38:37.557Z,56.09
2018-06-15T07:41:04.313Z,56.08
2018-06-15T07:43:30.797Z,55.94
2018-06-15T07:45:57.257Z,55.51
2018-06-15T07:48:24.011Z,55.46
2018-06-15T07:50:50.481Z,56.20
2018-06-15T07:53:16.939Z,55.84
2018-06-15T07:55:44.388Z,55.95
2018-06-15T07:58:10.843Z,55.80
2018-06-15T08:00:37.292Z,56.24
2018-06-15T08:03:04.059Z,55.95
2018-06-15T08:05:31.179Z,56.05
2018-06-15T08:07:57.649Z,55.64
2018-06-15T08:10:24.437Z,55.73
2018-06-15T08:12:53.048Z,55.76
2018-06-15T08:15:19.533Z,55.88
2018-06-15T08:17:46.318Z,55.48
2018-06-15T08:20:12.795Z,55.82
2018-06-15T08:22:39.280Z,55.40
2018-06-15T08:25:06.028Z,55.67
2018-06-15T08:27:32.543Z,55.78
2018-06-15T08:29:59.052Z,55.41
2018-06-15T08:32:25.807Z,55.55
2018-06-15T08:34:52.267Z,55.24
2018-06-15T08:37:18.734Z,55.24
2018-06-15T08:39:46.156Z,55.29
2018-06-15T08:42:13.632Z,55.46
2018-06-15T08:44:40.093Z,55.71
2018-06-15T08:47:07.614Z,55.65
2018-06-15T08:49:34.221Z,55.58
2018-06-15T08:52:00.674Z,55.29
2018-06-15T08:54:27.423Z,55.29
2018-06-15T08:56:53.881Z,55.73
2018-06-15T08:59:20.347Z,55.23
2018-06-15T09:01:47.102Z,55.72
2018-06-15T09:04:13.623Z,55.21
2018-06-15T09:06:40.089Z,55.51
2018-06-15T09:09:06.545Z,55.45
2018-06-15T09:11:33.049Z,55.60
2018-06-15T09:14:00.501Z,55.77
2018-06-15T09:16:26.985Z,55.70
2018-06-15T09:18:54.200Z,55.67
2018-06-15T09:21:20.958Z,55.55
2018-06-15T09:23:47.396Z,55.78
2018-06-15T09:26:13.882Z,55.65
2018-06-15T09:28:40.613Z,55.38
2018-06-15T09:31:07.065Z,55.40
2018-06-15T09:33:33.553Z,55.64
2018-06-15T09:36:00.316Z,55.49
2018-06-15T09:38:26.771Z,55.80
2018-06-15T09:40:53.237Z,55.72
2018-06-15T09:43:20.490Z,55.41
2018-06-15T09:45:47.234Z,55.64
2018-06-15T09:48:13.692Z,55.37
2018-06-15T09:50:40.434Z,54.91
2018-06-15T09:53:07.546Z,55.42
2018-06-15T09:55:35.876Z,54.97
2018-06-15T09:58:02.622Z,55.42
2018-06-15T10:00:30.298Z,55.59
2018-06-15T10:02:56.760Z,55.64
2018-06-15T10:05:23.481Z,55.56
2018-06-15T10:07:49.950Z,55.27
2018-06-15T10:10:16.413Z,55.14
2018-06-15T10:12:43.445Z,55.10
2018-06-15T10:15:10.568Z,55.53
2018-06-15T10:17:37.041Z,55.44
2018-06-15T10:20:03.823Z,55.55
2018-06-15T10:22:30.328Z,55.56
2018-06-15T10:24:56.808Z,55.22
2018-06-15T10:27:24.501Z,55.11
2018-06-15T10:29:51.840Z,55.52
2018-06-15T10:32:18.278Z,55.48
2018-06-15T10:34:45.041Z,55.61
2018-06-15T10:37:11.500Z,55.13
2018-06-15T10:39:39.628Z,55.55
2018-06-15T10:42:06.363Z,55.13
2018-06-15T10:44:32.817Z,55.55
2018-06-15T10:46:59.276Z,55.01
2018-06-15T10:49:26.064Z,55.00
2018-06-15T10:51:52.524Z,55.01
2018-06-15T10:54:18.984Z,55.18
2018-06-15T10:56:45.724Z,55.46
2018-06-15T10:59:13.423Z,55.29
2018-06-15T11:01:39.865Z,55.41
2018-06-15T11:04:06.609Z,55.44
2018-06-15T11:06:33.040Z,55.50
2018-06-15T11:08:59.534Z,55.06
2018-06-15T11:11:26.339Z,55.04
2018-06-15T11:13:52.789Z,55.31
2018-06-15T11:16:20.974Z,55.46
2018-06-15T11:18:48.482Z,55.31
2018-06-15T11:21:14.920Z,54.93
2018-06-15T11:23:41.372Z,54.87
2018-06-15T11:26:10.628Z,55.31
2018-06-15T11:28:37.398Z,54.94
2018-06-15T11:31:04.696Z,55.22
2018-06-15T11:33:32.987Z,54.77
2018-06-15T11:35:59.441Z,55.38
2018-06-15T11:38:25.951Z,55.44
2018-06-15T11:40:52.705Z,54.90
2018-06-15T11:43:19.801Z,55.12
2018-06-15T11:45:46.237Z,55.41
2018-06-15T11:48:13.880Z,55.46
2018-06-15T11:50:40.468Z,55.03
2018-06-15T11:53:06.964Z,55.15
2018-06-15T11:55:33.705Z,55.42
2018-06-15T11:58:00.152Z,55.16
2018-06-15T12:00:26.665Z,55.36
2018-06-15T12:02:53.397Z,54.91
2018-06-15T12:05:19.833Z,54.77
2018-06-15T12:07:47.343Z,54.79
2018-06-15T12:10:14.621Z,55.32
2018-06-15T12:12:41.063Z,55.01
2018-06-15T12:15:07.820Z,54.83
2018-06-15T12:17:34.308Z,55.23
2018-06-15T12:20:00.779Z,55.41
2018-06-15T12:22:28.363Z,55.28
2018-06-15T12:24:54.808Z,55.00
2018-06-15T12:27:22.418Z,55.14
2018-06-15T12:29:49.177Z,55.36
2018-06-15T12:32:15.637Z,55.36
2018-06-15T12:34:42.111Z,55.36
2018-06-15T12:37:09.401Z,54.87
2018-06-15T12:42:03.098Z,54.91
2018-06-15T12:44:29.831Z,55.25
2018-06-15T12:46:56.472Z,55.25
2018-06-15T12:49:23.525Z,55.18
2018-06-15T12:51:50.311Z,54.74
2018-06-15T12:54:16.771Z,55.20
2018-06-15T12:59:09.854Z,55.30
2018-06-15T13:01:36.379Z,54.95
2018-06-15T13:04:02.843Z,55.12
2018-06-15T13:06:30.265Z,55.30
2018-06-15T13:08:56.712Z,55.22
2018-06-15T13:11:23.160Z,54.85
2018-06-15T13:13:49.900Z,54.70
2018-06-15T13:16:16.340Z,54.66
2018-06-15T13:18:42.781Z,55.30
2018-06-15T13:21:09.531Z,55.38
2018-06-15T13:23:36.758Z,56.21
2018-06-15T13:26:03.192Z,56.24
2018-06-15T13:28:29.933Z,55.97
2018-06-15T13:30:56.413Z,56.20
2018-06-15T13:33:23.689Z,55.60
2018-06-15T13:35:50.440Z,55.71
2018-06-15T13:38:16.889Z,55.75
2018-06-15T13:40:43.349Z,55.45
2018-06-15T13:43:11.080Z,55.65
2018-06-15T13:48:10.401Z,55.31
2018-06-15T13:50:37.174Z,55.87
2018-06-15T13:53:03.633Z,55.40
2018-06-15T13:55:30.128Z,55.69
2018-06-15T13:57:56.874Z,55.53
2018-06-15T14:00:23.385Z,55.92
2018-06-15T14:02:49.836Z,55.79
2018-06-15T14:05:17.784Z,55.54
2018-06-15T14:07:44.843Z,55.41
2018-06-15T14:10:11.286Z,55.68
2018-06-15T14:12:38.518Z,55.36
2018-06-15T14:15:05.512Z,55.30
2018-06-15T14:17:32.864Z,55.61
2018-06-15T14:19:59.612Z,55.48
2018-06-15T14:22:26.209Z,55.30
2018-06-15T14:24:52.661Z,55.80
2018-06-15T14:27:19.437Z,55.13
2018-06-15T14:29:47.384Z,55.33
2018-06-15T14:32:13.849Z,55.29
2018-06-15T14:34:40.889Z,54.70
2018-06-15T14:37:07.358Z,54.62
2018-06-15T14:39:33.799Z,54.64
2018-06-15T14:42:00.542Z,54.37
2018-06-15T14:44:27.026Z,54.82
2018-06-15T14:46:54.463Z,55.08
2018-06-15T14:49:21.225Z,54.75
2018-06-15T14:51:49.208Z,55.21
2018-06-15T14:54:15.652Z,55.16
2018-06-15T14:56:44.582Z,55.23
2018-06-15T14:59:11.034Z,55.36
2018-06-15T15:01:38.477Z,55.23
2018-06-15T15:04:07.701Z,55.47
2018-06-15T15:06:35.612Z,54.72
2018-06-15T15:09:02.065Z,52.77
2018-06-15T15:11:28.531Z,53.78
2018-06-15T15:13:56.076Z,55.20
2018-06-15T15:16:22.838Z,56.17
2018-06-15T15:18:49.326Z,55.77
2018-06-15T15:21:16.616Z,56.24
2018-06-15T16:05:27.425Z,49.53
2018-06-15T16:07:55.828Z,47.48
2018-06-15T16:10:26.371Z,49.10
2018-06-15T16:12:55.158Z,51.39
2018-06-15T16:43:13.417Z,33.70
2018-06-15T16:45:40.688Z,36.46
2018-06-15T16:48:07.784Z,38.04
2018-06-15T16:50:35.032Z,38.82
2018-06-15T16:53:01.840Z,39.31
2018-06-15T16:55:29.698Z,41.49
2018-06-15T16:57:57.231Z,42.35
2018-06-15T17:00:24.085Z,42.84
2018-06-15T17:02:51.469Z,42.25
2018-06-15T17:05:19.617Z,40.80
2018-06-15T17:07:46.320Z,38.05
2018-06-15T17:10:13.230Z,33.77
2018-06-15T17:12:40.142Z,33.50
2018-06-15T17:15:06.814Z,32.97
2018-06-15T17:17:34.594Z,31.10
2018-06-15T17:20:01.167Z,31.41
2018-06-15T17:22:28.612Z,31.77
2018-06-15T17:24:56.553Z,31.12
2018-06-15T17:27:23.219Z,29.22
2018-06-15T17:29:49.911Z,28.19
2018-06-15T17:32:16.766Z,28.29
2018-06-15T17:34:44.385Z,28.86
2018-06-15T17:37:10.955Z,28.53
2018-06-15T17:39:38.977Z,29.80
2018-06-15T17:42:05.569Z,31.97
2018-06-15T17:44:33.533Z,35.32
2018-06-15T17:47:02.317Z,37.69
2018-06-15T17:49:28.783Z,39.47
2018-06-15T17:51:55.238Z,37.81
2018-06-15T17:54:24.056Z,35.92
2018-06-15T17:56:50.572Z,35.28
2018-06-15T17:59:17.144Z,37.62
2018-06-15T18:01:46.455Z,40.17
2018-06-15T18:04:16.445Z,41.72
2018-06-15T19:35:45.179Z,57.71
2018-06-15T19:38:11.648Z,58.95
2018-06-15T19:40:39.263Z,58.59
2018-06-15T19:43:06.078Z,58.96
2018-06-15T19:45:33.054Z,60.00
2018-06-15T19:47:59.512Z,63.48
2018-06-15T19:50:26.277Z,64.00
2018-06-15T19:52:53.528Z,61.41
2018-06-15T19:55:19.991Z,61.03
2018-06-15T19:57:46.740Z,60.18
2018-06-15T20:00:14.580Z,60.60
2018-06-15T20:02:41.033Z,60.87
2018-06-15T20:05:07.823Z,60.30
2018-06-15T20:07:35.116Z,60.27
2018-06-15T20:10:02.513Z,60.13
2018-06-15T20:12:29.446Z,60.57
2018-06-15T20:14:56.427Z,61.79
2018-06-15T20:17:24.037Z,60.86
2018-06-15T20:19:52.273Z,60.87
2018-06-15T20:22:19.464Z,60.35
2018-06-15T20:24:47.162Z,60.42
2018-06-15T20:27:15.011Z,60.16
2018-06-15T20:29:41.468Z,61.30
2018-06-15T20:32:07.922Z,61.01
2018-06-15T20:34:37.613Z,61.36
2018-06-15T20:37:08.067Z,61.01
2018-06-15T20:39:34.548Z,60.48
2018-06-15T20:42:01.345Z,60.80
2018-06-15T20:44:27.809Z,64.57
2018-06-15T20:46:54.261Z,65.66
2018-06-15T20:49:21.177Z,66.61
2018-06-15T20:51:48.621Z,67.27
2018-06-15T20:54:15.145Z,65.69
2018-06-15T20:56:42.132Z,65.46
2018-06-15T20:59:09.645Z,65.88
2018-06-15T21:01:36.104Z,69.20
2018-06-15T21:04:03.697Z,70.23
2018-06-15T21:06:30.330Z,68.74
2018-06-15T21:08:57.776Z,69.81
2018-06-15T21:11:24.601Z,66.53
2018-06-15T21:20:38.239Z,61.93
2018-06-15T21:23:04.704Z,62.29
2018-06-15T21:25:32.175Z,61.54
2018-06-15T21:27:59.283Z,60.89
2018-06-15T21:30:28.764Z,61.00
2018-06-15T21:32:55.578Z,62.17
2018-06-15T21:35:22.044Z,64.92
2018-06-15T21:37:53.879Z,63.94
2018-06-15T21:40:29.792Z,63.02
2018-06-15T21:42:59.529Z,65.48
2018-06-15T21:45:26.887Z,66.29
2018-06-15T21:47:53.349Z,66.91
2018-06-15T21:50:19.784Z,64.19
2018-06-15T21:52:47.575Z,66.40
2018-06-15T21:55:14.035Z,68.01
2018-06-15T21:57:41.229Z,68.84
2018-06-15T22:00:07.978Z,68.36
2018-06-15T22:02:34.435Z,66.10
2018-06-15T22:05:00.929Z,65.94
2018-06-15T22:07:28.332Z,64.97
2018-06-15T22:09:55.617Z,65.03
2018-06-15T22:12:22.077Z,64.99
2018-06-15T22:14:48.826Z,64.63
2018-06-15T22:17:15.277Z,64.21
2018-06-15T22:19:41.728Z,64.59
2018-06-15T22:22:08.502Z,64.34
2018-06-15T22:24:34.953Z,66.78
2018-06-15T22:27:01.393Z,68.89
2018-06-15T22:29:28.129Z,69.37
2018-06-15T22:31:54.605Z,67.63
2018-06-15T22:34:21.577Z,67.92
2018-06-15T22:36:48.350Z,67.90
2018-06-15T22:39:14.793Z,67.75
2018-06-15T22:41:41.257Z,67.65
2018-06-15T22:44:07.987Z,67.48
2018-06-15T22:46:34.425Z,67.60
2018-06-15T22:49:04.306Z,67.05
2018-06-15T22:51:32.617Z,66.87
2018-06-15T22:53:59.062Z,67.38
2018-06-15T22:56:26.514Z,67.04
2018-06-15T22:58:56.225Z,67.76
2018-06-15T23:01:22.700Z,67.50
2018-06-15T23:03:49.353Z,68.22
2018-06-15T23:06:16.420Z,68.42
2018-06-15T23:08:43.172Z,69.18
2018-06-15T23:11:09.622Z,70.16
2018-06-15T23:13:36.077Z,71.03
2018-06-15T23:16:02.829Z,70.30
2018-06-15T23:18:29.301Z,70.64
2018-06-15T23:20:56.449Z,69.97
2018-06-15T23:23:23.362Z,69.79
2018-06-15T23:25:51.107Z,71.82
2018-06-15T23:28:18.126Z,73.65
2018-06-15T23:30:44.885Z,75.21
2018-06-15T23:33:11.342Z,75.63
2018-06-15T23:35:37.825Z,74.97
2018-06-15T23:38:04.378Z,74.58
2018-06-15T23:40:31.278Z,74.10
2018-06-15T23:42:57.724Z,73.40
2018-06-15T23:45:24.191Z,73.11
2018-06-15T23:47:50.652Z,73.09
2018-06-15T23:50:17.397Z,72.51
2018-06-15T23:52:43.844Z,72.03
2018-06-15T23:55:10.399Z,72.40
2018-06-15T23:57:40.696Z,71.94
